createdAt,value
2019-03-22T00:00:31.640Z,33.70
2019-03-22T00:03:01.370Z,34.35
2019-03-22T00:05:31.015Z,31.30
2019-03-22T00:08:00.464Z,33.13
2019-03-22T00:10:29.829Z,34.53
2019-03-22T00:12:59.364Z,31.48
2019-03-22T00:15:29.063Z,32.17
2019-03-22T00:17:58.523Z,33.18
2019-03-22T00:20:28.030Z,28.42
2019-03-22T00:22:57.557Z,30.52
2019-03-22T00:25:27.184Z,31.15
2019-03-22T00:27:56.849Z,31.75
2019-03-22T00:30:26.417Z,31.23
2019-03-22T00:32:55.901Z,32.08
2019-03-22T00:35:25.484Z,30.40
2019-03-22T00:37:54.972Z,29.50
2019-03-22T00:40:24.473Z,28.52
2019-03-22T00:42:53.943Z,30.60
2019-03-22T00:45:23.474Z,28.45
2019-03-22T00:47:52.971Z,29.67
2019-03-22T00:50:22.484Z,29.63
2019-03-22T00:52:52.044Z,30.02
2019-03-22T00:55:21.551Z,30.17
2019-03-22T00:57:51.005Z,29.95
2019-03-22T01:00:20.611Z,29.57
2019-03-22T01:02:50.224Z,28.10
2019-03-22T01:05:19.908Z,30.43
2019-03-22T01:07:49.560Z,32.08
2019-03-22T01:10:19.043Z,32.48
2019-03-22T01:12:48.811Z,32.15
2019-03-22T01:15:18.460Z,30.90
2019-03-22T01:17:47.852Z,30.95
2019-03-22T01:20:17.488Z,30.02
2019-03-22T01:22:47.264Z,35.05
2019-03-22T01:25:16.854Z,31.95
2019-03-22T01:27:46.294Z,29.80
2019-03-22T01:30:16.277Z,33.92
2019-03-22T01:32:45.929Z,32.90
2019-03-22T01:35:15.593Z,34.50
2019-03-22T01:37:45.169Z,33.73
2019-03-22T01:40:16.357Z,34.58
2019-03-22T01:42:45.919Z,35.05
2019-03-22T01:45:16.271Z,33.08
2019-03-22T01:47:45.939Z,32.50
2019-03-22T01:50:15.721Z,33.73
2019-03-22T01:52:45.270Z,35.60
2019-03-22T01:55:15.041Z,36.15
2019-03-22T01:57:53.153Z,35.75
2019-03-22T02:00:16.554Z,37.13
2019-03-22T02:02:46.239Z,37.88
2019-03-22T02:05:15.806Z,37.95
2019-03-22T02:07:45.395Z,34.38
2019-03-22T02:10:15.677Z,36.17
2019-03-22T02:12:45.288Z,37.05
2019-03-22T02:15:15.056Z,35.17
2019-03-22T02:17:44.936Z,33.60
2019-03-22T02:20:15.042Z,34.25
2019-03-22T02:22:44.808Z,36.98
2019-03-22T02:25:14.580Z,34.55
2019-03-22T02:27:44.187Z,34.83
2019-03-22T02:30:14.414Z,34.95
2019-03-22T02:32:43.879Z,34.25
2019-03-22T02:35:27.647Z,34.50
2019-03-22T02:37:44.977Z,33.63
2019-03-22T02:40:14.590Z,35.10
2019-03-22T02:42:44.018Z,33.00
2019-03-22T02:45:13.700Z,33.92
2019-03-22T02:47:43.403Z,34.60
2019-03-22T02:50:18.457Z,33.70
2019-03-22T02:52:44.416Z,31.60
2019-03-22T02:55:14.527Z,34.70
2019-03-22T02:57:43.983Z,34.60
2019-03-22T03:00:14.524Z,33.95
2019-03-22T03:02:43.974Z,33.25
2019-03-22T03:05:13.624Z,35.48
2019-03-22T03:07:43.391Z,33.75
2019-03-22T03:10:13.221Z,32.40
2019-03-22T03:12:42.729Z,37.00
2019-03-22T03:15:12.686Z,35.48
2019-03-22T03:17:42.074Z,35.30
2019-03-22T03:20:12.372Z,34.40
2019-03-22T03:22:41.881Z,35.28
2019-03-22T03:25:11.525Z,35.05
2019-03-22T03:27:40.981Z,32.55
2019-03-22T03:30:11.771Z,34.35
2019-03-22T03:32:41.387Z,34.13
2019-03-22T03:35:11.075Z,33.92
2019-03-22T03:37:40.539Z,35.00
2019-03-22T03:40:10.005Z,36.45
2019-03-22T03:42:39.435Z,34.20
2019-03-22T03:45:10.942Z,36.73
2019-03-22T03:47:40.316Z,33.45
2019-03-22T03:50:09.651Z,32.70
2019-03-22T03:52:40.159Z,32.40
2019-03-22T03:55:09.581Z,33.02
2019-03-22T03:57:38.883Z,34.85
2019-03-22T04:00:09.300Z,33.90
2019-03-22T04:02:38.732Z,34.15
2019-03-22T04:05:08.215Z,34.63
2019-03-22T04:07:37.595Z,33.67
2019-03-22T04:10:08.051Z,37.15
2019-03-22T04:12:37.411Z,36.73
2019-03-22T04:15:06.933Z,33.38
2019-03-22T04:17:36.306Z,33.88
2019-03-22T04:20:06.022Z,32.17
2019-03-22T04:22:36.502Z,35.50
2019-03-22T04:25:06.408Z,34.98
2019-03-22T04:27:35.748Z,36.00
2019-03-22T04:30:05.825Z,34.88
2019-03-22T04:32:35.196Z,34.63
2019-03-22T04:35:04.861Z,34.18
2019-03-22T04:37:34.225Z,35.08
2019-03-22T04:40:06.565Z,33.75
2019-03-22T04:42:35.950Z,33.35
2019-03-22T04:45:05.976Z,34.78
2019-03-22T04:47:35.744Z,36.15
2019-03-22T04:50:05.765Z,35.35
2019-03-22T04:52:35.371Z,37.80
2019-03-22T04:55:04.916Z,34.30
2019-03-22T04:57:35.064Z,37.40
2019-03-22T05:00:05.874Z,35.28
2019-03-22T05:02:35.686Z,35.03
2019-03-22T05:05:05.578Z,34.13
2019-03-22T05:07:35.257Z,38.90
2019-03-22T05:10:05.085Z,40.10
2019-03-22T05:12:34.998Z,37.03
2019-03-22T05:15:04.978Z,39.05
2019-03-22T05:17:34.559Z,35.50
2019-03-22T05:20:04.689Z,38.48
2019-03-22T05:22:36.086Z,37.08
2019-03-22T05:25:06.074Z,41.20
2019-03-22T05:27:39.129Z,42.10
2019-03-22T05:30:11.031Z,41.42
2019-03-22T05:32:40.396Z,39.83
2019-03-22T05:35:09.796Z,39.03
2019-03-22T05:37:39.413Z,38.10
2019-03-22T05:40:09.079Z,38.38
2019-03-22T05:42:38.454Z,35.52
2019-03-22T05:45:08.348Z,35.15
2019-03-22T05:47:37.764Z,40.50
2019-03-22T05:50:07.576Z,39.80
2019-03-22T05:52:37.500Z,40.35
2019-03-22T05:55:07.621Z,42.85
2019-03-22T05:57:36.975Z,41.73
2019-03-22T06:00:07.074Z,42.53
2019-03-22T06:02:36.485Z,40.52
2019-03-22T06:05:06.627Z,41.83
2019-03-22T06:07:37.125Z,42.85
2019-03-22T06:10:06.832Z,42.85
2019-03-22T06:12:36.168Z,43.80
2019-03-22T06:15:06.393Z,40.40
2019-03-22T06:17:35.883Z,39.53
2019-03-22T06:20:05.553Z,41.42
2019-03-22T06:22:34.879Z,41.23
2019-03-22T06:25:04.342Z,38.83
2019-03-22T06:27:33.741Z,43.70
2019-03-22T06:30:03.343Z,44.67
2019-03-22T06:32:32.832Z,41.37
2019-03-22T06:35:02.288Z,41.85
2019-03-22T06:37:31.630Z,45.50
2019-03-22T06:40:01.030Z,39.98
2019-03-22T06:42:31.649Z,45.73
2019-03-22T06:45:03.145Z,42.10
2019-03-22T06:47:33.606Z,40.50
2019-03-22T06:50:03.023Z,42.48
2019-03-22T06:52:35.105Z,42.40
2019-03-22T06:55:37.836Z,45.25
2019-03-22T06:58:48.663Z,44.38
2019-03-22T07:01:21.692Z,44.60
2019-03-22T07:03:51.785Z,46.05
2019-03-22T07:06:22.017Z,47.73
2019-03-22T07:08:52.035Z,47.90
2019-03-22T07:11:27.913Z,48.63
2019-03-22T07:13:57.395Z,46.90
2019-03-22T07:16:26.808Z,48.58
2019-03-22T07:18:56.213Z,46.68
2019-03-22T07:21:25.594Z,44.40
2019-03-22T07:23:54.982Z,43.83
2019-03-22T07:26:24.246Z,43.98
2019-03-22T07:28:53.634Z,44.18
2019-03-22T07:31:22.929Z,41.58
2019-03-22T07:33:52.253Z,42.45
2019-03-22T07:36:21.564Z,40.85
2019-03-22T07:38:50.889Z,40.35
2019-03-22T07:41:20.217Z,40.60
2019-03-22T07:43:49.546Z,40.25
2019-03-22T07:46:18.858Z,37.10
2019-03-22T07:48:48.281Z,38.63
2019-03-22T07:51:18.084Z,37.00
2019-03-22T07:53:47.424Z,36.90
2019-03-22T07:56:16.833Z,36.50
2019-03-22T07:58:46.285Z,36.75
2019-03-22T08:01:16.477Z,38.58
2019-03-22T08:03:46.022Z,35.23
2019-03-22T08:06:15.846Z,32.05
2019-03-22T08:08:45.370Z,40.80
2019-03-22T08:11:15.055Z,37.60
2019-03-22T08:13:44.566Z,36.00
2019-03-22T08:16:14.055Z,34.73
2019-03-22T08:18:43.443Z,38.38
2019-03-22T08:21:12.819Z,39.63
2019-03-22T08:23:42.207Z,35.73
2019-03-22T08:26:11.795Z,38.10
2019-03-22T08:28:41.696Z,37.53
2019-03-22T08:31:11.159Z,37.67
2019-03-22T08:33:40.638Z,40.05
2019-03-22T08:36:10.034Z,36.90
2019-03-22T08:38:39.376Z,37.20
2019-03-22T08:41:08.880Z,37.63
2019-03-22T08:43:38.233Z,37.20
2019-03-22T08:46:07.711Z,34.03
2019-03-22T08:48:37.123Z,38.58
2019-03-22T08:51:06.588Z,34.33
2019-03-22T08:53:36.167Z,35.78
2019-03-22T08:56:05.873Z,35.63
2019-03-22T08:58:35.270Z,33.35
2019-03-22T09:01:04.599Z,34.40
2019-03-22T09:03:34.386Z,32.42
2019-03-22T09:06:03.898Z,33.95
2019-03-22T09:08:33.277Z,34.90
2019-03-22T09:11:03.057Z,32.45
2019-03-22T09:13:35.993Z,33.67
2019-03-22T09:16:05.430Z,35.43
2019-03-22T09:18:35.354Z,34.20
2019-03-22T09:21:04.945Z,33.00
2019-03-22T09:23:34.566Z,33.70
2019-03-22T09:26:04.166Z,34.15
2019-03-22T09:28:33.550Z,34.00
2019-03-22T09:31:10.288Z,33.83
2019-03-22T09:33:34.527Z,33.20
2019-03-22T09:36:04.142Z,32.95
2019-03-22T09:38:33.754Z,33.45
2019-03-22T09:41:03.360Z,31.15
2019-03-22T09:43:33.085Z,31.48
2019-03-22T09:46:02.657Z,29.42
2019-03-22T09:48:32.066Z,32.00
2019-03-22T09:51:01.533Z,29.90
2019-03-22T09:53:31.280Z,31.42
2019-03-22T09:56:00.700Z,31.05
2019-03-22T09:58:30.651Z,29.32
2019-03-22T10:01:00.252Z,27.65
2019-03-22T10:03:29.631Z,30.90
2019-03-22T10:05:59.148Z,32.15
2019-03-22T10:08:28.733Z,36.30
2019-03-22T10:10:58.432Z,35.03
2019-03-22T10:13:27.874Z,33.67
2019-03-22T10:15:57.352Z,32.73
2019-03-22T10:18:26.949Z,34.63
2019-03-22T10:20:56.553Z,35.65
2019-03-22T10:23:25.901Z,33.83
2019-03-22T10:25:55.228Z,33.55
2019-03-22T10:28:24.597Z,37.53
2019-03-22T10:30:53.909Z,39.08
2019-03-22T10:33:23.369Z,35.65
2019-03-22T10:35:52.824Z,33.90
2019-03-22T10:38:31.105Z,37.13
2019-03-22T10:40:53.224Z,37.70
2019-03-22T10:43:22.695Z,38.35
2019-03-22T10:45:52.077Z,38.60
2019-03-22T10:48:21.419Z,41.75
2019-03-22T10:50:51.407Z,39.25
2019-03-22T10:53:20.704Z,41.33
2019-03-22T10:55:50.126Z,39.70
2019-03-22T10:58:21.321Z,36.95
2019-03-22T11:00:50.633Z,38.23
2019-03-22T11:03:20.023Z,38.45
2019-03-22T11:05:49.415Z,45.03
2019-03-22T11:08:18.774Z,46.35
2019-03-22T11:10:48.172Z,41.13
2019-03-22T11:13:17.622Z,42.43
2019-03-22T11:15:48.800Z,41.68
2019-03-22T11:18:18.559Z,39.90
2019-03-22T11:20:48.023Z,41.05
2019-03-22T11:23:17.734Z,41.58
2019-03-22T11:25:47.100Z,38.28
2019-03-22T11:28:16.502Z,39.80
2019-03-22T11:30:45.982Z,38.78
2019-03-22T11:33:15.405Z,40.98
2019-03-22T11:35:44.769Z,38.95
2019-03-22T11:38:14.586Z,37.70
2019-03-22T11:40:44.191Z,38.10
2019-03-22T11:43:13.759Z,38.50
2019-03-22T11:45:44.453Z,36.50
2019-03-22T11:48:14.041Z,38.55
2019-03-22T11:50:43.573Z,38.23
2019-03-22T11:53:13.141Z,40.40
2019-03-22T11:55:45.573Z,40.48
2019-03-22T11:58:14.911Z,39.63
2019-03-22T12:00:44.220Z,40.63
2019-03-22T12:03:13.537Z,39.13
2019-03-22T12:05:42.917Z,38.75
2019-03-22T12:08:12.323Z,38.83
2019-03-22T12:10:41.707Z,36.85
2019-03-22T12:13:10.982Z,37.67
2019-03-22T12:15:40.410Z,38.75
2019-03-22T12:18:09.717Z,39.65
2019-03-22T12:20:39.068Z,38.20
2019-03-22T12:23:08.489Z,39.53
2019-03-22T12:25:37.855Z,35.33
2019-03-22T12:28:07.220Z,42.10
2019-03-22T12:30:36.633Z,41.33
2019-03-22T12:33:06.016Z,42.33
2019-03-22T12:35:35.402Z,39.33
2019-03-22T12:38:04.888Z,40.20
2019-03-22T12:40:34.238Z,37.65
2019-03-22T12:43:03.613Z,41.37
2019-03-22T12:45:33.473Z,42.80
2019-03-22T12:48:02.931Z,42.40
2019-03-22T12:50:32.299Z,43.73
2019-03-22T12:53:01.680Z,42.78
2019-03-22T12:55:31.054Z,44.15
2019-03-22T12:58:00.424Z,44.18
2019-03-22T13:00:29.926Z,43.17
2019-03-22T13:02:59.315Z,40.38
2019-03-22T13:05:28.609Z,40.73
2019-03-22T13:07:57.915Z,41.70
2019-03-22T13:10:27.912Z,43.40
2019-03-22T13:12:57.321Z,39.40
2019-03-22T13:15:26.692Z,42.85
2019-03-22T13:17:56.006Z,43.70
2019-03-22T13:20:25.286Z,44.15
2019-03-22T13:22:54.560Z,44.83
2019-03-22T13:25:24.044Z,44.15
2019-03-22T13:27:53.355Z,41.28
2019-03-22T13:30:33.348Z,42.50
2019-03-22T13:33:02.816Z,42.17
2019-03-22T13:35:32.169Z,44.60
2019-03-22T13:38:01.577Z,42.50
2019-03-22T13:40:31.197Z,41.77
2019-03-22T13:43:01.168Z,45.90
2019-03-22T13:45:30.648Z,44.00
2019-03-22T13:47:59.941Z,44.00
2019-03-22T13:50:29.402Z,40.92
2019-03-22T13:52:58.924Z,44.70
2019-03-22T13:55:28.240Z,43.55
2019-03-22T13:57:57.512Z,46.25
2019-03-22T14:00:27.041Z,48.92
2019-03-22T14:03:03.167Z,45.15
2019-03-22T14:05:27.352Z,45.12
2019-03-22T14:07:56.663Z,40.90
2019-03-22T14:10:30.633Z,42.73
2019-03-22T14:13:00.461Z,43.83
2019-03-22T14:15:29.924Z,46.70
2019-03-22T14:17:59.573Z,45.45
2019-03-22T14:20:29.277Z,45.70
2019-03-22T14:22:58.718Z,46.25
2019-03-22T14:25:28.200Z,45.17
2019-03-22T14:27:57.778Z,43.10
2019-03-22T14:30:27.182Z,48.00
2019-03-22T14:32:56.695Z,47.93
2019-03-22T14:35:28.367Z,44.53
2019-03-22T14:37:58.037Z,44.83
2019-03-22T14:40:27.582Z,46.25
2019-03-22T14:42:57.197Z,46.25
2019-03-22T14:45:26.671Z,42.85
2019-03-22T14:47:55.989Z,45.63
2019-03-22T14:50:25.424Z,40.98
2019-03-22T14:52:54.835Z,43.40
2019-03-22T14:55:24.135Z,46.05
2019-03-22T14:57:53.732Z,48.42
2019-03-22T15:00:23.124Z,46.40
2019-03-22T15:02:52.571Z,43.48
2019-03-22T15:05:21.997Z,46.10
2019-03-22T15:07:51.427Z,42.58
2019-03-22T15:10:20.750Z,45.08
2019-03-22T15:12:50.895Z,43.15
2019-03-22T15:15:35.355Z,44.20
2019-03-22T15:18:15.408Z,41.18
2019-03-22T15:21:02.659Z,45.58
2019-03-22T15:23:45.217Z,44.20
2019-03-22T15:26:47.907Z,41.30
2019-03-22T15:29:37.033Z,44.42
2019-03-22T15:32:23.948Z,44.03
2019-03-22T15:35:09.739Z,41.95
2019-03-22T15:37:56.707Z,42.40
2019-03-22T15:40:26.040Z,43.83
2019-03-22T15:42:55.413Z,45.03
2019-03-22T15:45:24.750Z,45.60
2019-03-22T15:47:54.083Z,45.08
2019-03-22T15:50:23.494Z,43.85
2019-03-22T15:52:52.833Z,43.95
2019-03-22T15:55:22.259Z,42.95
2019-03-22T15:57:51.628Z,45.60
2019-03-22T16:00:20.952Z,43.92
2019-03-22T16:02:50.366Z,42.30
2019-03-22T16:05:20.113Z,45.58
2019-03-22T16:07:49.728Z,43.92
2019-03-22T16:10:19.192Z,42.67
2019-03-22T16:12:48.587Z,46.23
2019-03-22T16:15:18.362Z,47.73
2019-03-22T16:17:47.684Z,48.02
2019-03-22T16:20:17.373Z,44.25
2019-03-22T16:22:46.684Z,43.68
2019-03-22T16:25:16.101Z,43.70
2019-03-22T16:27:45.432Z,46.48
2019-03-22T16:30:15.097Z,46.63
2019-03-22T16:32:44.468Z,47.98
2019-03-22T16:35:15.202Z,46.73
2019-03-22T16:37:44.508Z,45.60
2019-03-22T16:40:23.854Z,49.38
2019-03-22T16:42:46.040Z,47.38
2019-03-22T16:45:35.580Z,46.08
2019-03-22T16:48:05.505Z,48.92
2019-03-22T16:50:35.150Z,44.63
2019-03-22T16:53:04.638Z,47.00
2019-03-22T16:55:34.039Z,48.58
2019-03-22T16:58:03.524Z,45.17
2019-03-22T17:00:32.948Z,49.98
2019-03-22T17:03:02.464Z,48.05
2019-03-22T17:05:32.618Z,46.33
2019-03-22T17:08:01.905Z,50.88
2019-03-22T17:10:31.265Z,49.40
2019-03-22T17:13:00.540Z,47.60
2019-03-22T17:15:29.877Z,48.35
2019-03-22T17:17:59.199Z,48.50
2019-03-22T17:20:28.583Z,49.40
2019-03-22T17:22:57.942Z,50.35
2019-03-22T17:25:27.349Z,49.15
2019-03-22T17:27:57.866Z,47.73
2019-03-22T17:30:27.451Z,50.95
2019-03-22T17:32:57.244Z,47.45
2019-03-22T17:35:26.761Z,48.08
2019-03-22T17:37:56.663Z,45.70
2019-03-22T17:40:26.216Z,47.80
2019-03-22T17:43:06.067Z,49.18
2019-03-22T17:45:36.118Z,50.03
2019-03-22T17:48:06.171Z,48.02
2019-03-22T17:50:35.737Z,47.45
2019-03-22T17:53:10.100Z,47.43
2019-03-22T17:55:52.163Z,49.35
2019-03-22T17:58:32.225Z,48.42
2019-03-22T18:01:04.353Z,45.88
2019-03-22T18:03:36.894Z,47.00
2019-03-22T18:06:09.165Z,46.30
2019-03-22T18:08:39.117Z,45.52
2019-03-22T18:11:10.474Z,47.27
2019-03-22T18:13:46.976Z,49.88
2019-03-22T18:16:16.900Z,48.52
2019-03-22T18:18:50.811Z,48.63
2019-03-22T18:21:21.797Z,47.98
2019-03-22T18:23:56.937Z,43.83
2019-03-22T18:26:26.701Z,47.85
2019-03-22T18:28:57.995Z,47.33
2019-03-22T18:31:27.754Z,48.05
2019-03-22T18:34:04.664Z,49.40
2019-03-22T18:36:36.375Z,52.20
2019-03-22T18:39:08.517Z,48.40
2019-03-22T18:41:40.617Z,45.33
2019-03-22T18:44:10.706Z,49.42
2019-03-22T18:46:40.719Z,50.05
2019-03-22T18:49:10.818Z,47.05
2019-03-22T18:51:40.530Z,52.13
2019-03-22T18:54:10.489Z,46.45
2019-03-22T18:56:40.393Z,49.20
2019-03-22T18:59:09.904Z,54.20
2019-03-22T19:01:40.209Z,50.05
2019-03-22T19:04:13.017Z,51.25
2019-03-22T19:06:42.828Z,53.40
2019-03-22T19:09:12.577Z,53.20
2019-03-22T19:11:42.392Z,54.13
2019-03-22T19:14:12.162Z,53.40
2019-03-22T19:16:44.738Z,53.52
2019-03-22T19:19:15.893Z,54.50
2019-03-22T19:21:47.065Z,53.50
2019-03-22T19:24:16.484Z,55.52
2019-03-22T19:26:45.925Z,53.58
2019-03-22T19:29:15.476Z,54.88
2019-03-22T19:31:44.992Z,53.78
2019-03-22T19:34:14.502Z,57.13
2019-03-22T19:36:46.313Z,55.28
2019-03-22T19:39:15.810Z,56.75
2019-03-22T19:41:45.272Z,58.90
2019-03-22T19:44:14.694Z,53.83
2019-03-22T19:46:44.343Z,57.95
2019-03-22T19:49:13.742Z,54.60
2019-03-22T19:51:43.135Z,55.20
2019-03-22T19:54:12.546Z,57.55
2019-03-22T19:56:42.004Z,58.58
2019-03-22T19:59:11.500Z,57.83
2019-03-22T20:01:40.959Z,59.35
2019-03-22T20:04:10.350Z,61.50
2019-03-22T20:06:39.780Z,59.77
2019-03-22T20:09:09.868Z,58.05
2019-03-22T20:11:39.339Z,57.45
2019-03-22T20:14:08.752Z,62.73
2019-03-22T20:16:38.529Z,55.75
2019-03-22T20:19:07.993Z,52.58
2019-03-22T20:21:37.285Z,58.20
2019-03-22T20:24:06.607Z,56.00
2019-03-22T20:26:36.037Z,57.05
2019-03-22T20:29:05.356Z,56.28
2019-03-22T20:31:34.655Z,58.65
2019-03-22T20:34:04.210Z,59.80
2019-03-22T20:36:33.630Z,59.80
2019-03-22T20:39:04.447Z,59.13
2019-03-22T20:41:34.457Z,58.30
2019-03-22T20:44:03.931Z,61.70
2019-03-22T20:46:33.287Z,58.38
2019-03-22T20:49:05.082Z,60.20
2019-03-22T20:51:33.746Z,58.78
2019-03-22T20:54:03.365Z,64.65
2019-03-22T20:56:35.614Z,62.40
2019-03-22T20:59:05.404Z,59.93
2019-03-22T21:01:34.960Z,61.88
2019-03-22T21:04:04.536Z,67.45
2019-03-22T21:06:33.968Z,61.28
2019-03-22T21:09:04.350Z,61.05
2019-03-22T21:11:33.733Z,62.20
2019-03-22T21:14:03.350Z,64.17
2019-03-22T21:16:32.998Z,67.85
2019-03-22T21:19:02.472Z,70.08
2019-03-22T21:21:36.363Z,65.42
2019-03-22T21:24:03.086Z,67.65
2019-03-22T21:26:32.436Z,67.40
2019-03-22T21:29:08.749Z,66.57
2019-03-22T21:31:38.261Z,58.73
2019-03-22T21:34:07.604Z,86.32
2019-03-22T21:36:40.668Z,68.97
2019-03-22T21:39:10.230Z,67.12
2019-03-22T21:41:39.557Z,66.87
2019-03-22T21:44:08.822Z,64.80
2019-03-22T21:46:38.276Z,66.95
2019-03-22T21:49:07.737Z,67.65
2019-03-22T21:51:37.160Z,67.40
2019-03-22T21:54:06.481Z,68.10
2019-03-22T21:56:35.878Z,64.97
2019-03-22T21:59:05.802Z,68.05
2019-03-22T22:01:35.278Z,66.42
2019-03-22T22:04:04.596Z,70.32
2019-03-22T22:06:34.007Z,72.65
2019-03-22T22:09:04.521Z,66.33
2019-03-22T22:11:33.982Z,68.62
2019-03-22T22:14:03.299Z,66.70
2019-03-22T22:16:32.749Z,67.37
2019-03-22T22:19:02.133Z,66.12
2019-03-22T22:21:31.986Z,69.27
2019-03-22T22:24:01.418Z,66.45
2019-03-22T22:26:31.005Z,66.92
2019-03-22T22:29:00.360Z,67.30
2019-03-22T22:31:29.707Z,65.87
2019-03-22T22:33:59.119Z,68.12
2019-03-22T22:36:28.496Z,68.05
2019-03-22T22:38:57.895Z,69.47
2019-03-22T22:41:27.214Z,71.15
2019-03-22T22:43:56.607Z,72.15
2019-03-22T22:46:25.986Z,68.28
2019-03-22T22:48:55.745Z,70.17
2019-03-22T22:51:25.217Z,66.42
2019-03-22T22:53:54.563Z,69.87
2019-03-22T22:56:23.948Z,69.07
2019-03-22T22:58:53.385Z,71.45
2019-03-22T23:01:22.927Z,74.32
2019-03-22T23:03:52.368Z,71.17
2019-03-22T23:06:21.773Z,70.75
2019-03-22T23:08:51.624Z,69.37
2019-03-22T23:11:21.386Z,72.40
2019-03-22T23:13:50.680Z,74.12
2019-03-22T23:16:20.020Z,69.32
2019-03-22T23:18:49.482Z,66.35
2019-03-22T23:21:18.751Z,69.72
2019-03-22T23:23:48.091Z,71.67
2019-03-22T23:26:17.404Z,68.28
2019-03-22T23:28:46.724Z,72.97
2019-03-22T23:31:16.034Z,70.05
2019-03-22T23:33:45.356Z,66.95
2019-03-22T23:36:20.297Z,71.30
2019-03-22T23:38:45.723Z,66.67
2019-03-22T23:41:17.168Z,64.80
2019-03-22T23:43:46.533Z,67.50
2019-03-22T23:46:15.929Z,69.05
2019-03-22T23:48:45.277Z,65.65
2019-03-22T23:51:14.544Z,74.07
2019-03-22T23:53:43.860Z,73.90
2019-03-22T23:56:13.222Z,71.02
2019-03-22T23:58:42.541Z,75.22
